Decoded Metar for RCMQ (CHINGCHUAKANG in TAIWAN) (IATA:N/A) | Meteo·Mobile Aviation Weather
aviador You're here:

RCMQ Decoded Metar

CHINGCHUAKANG in TAIWAN
Report Time2019-02-19 12:30:00
UTC Time2019-02-19 13:00:29
Flight Rules mvfr MVFR
Wind320° at 01 kt
W.Decomp.*RWY 36: 0.8 kt HW 0.6 kt LCW
W.Rank320° ranks 14
Current wind is below 320° avg. (6.1)
Visibility6000 m
Phenomena:N/A
Clouds:Few 010 Hf
Broken 100 Hf
Expected CloudBase > 1,200 ft AGL from Temp-Dew spread
Ceiling10,000 ft
Temp21°C (ISA +6)
Dew Point18°C (83% RH)
QNH1021 hPa
Density Alt725 ft
Elevation16 ft
Report Wrong Elevation
Raw Report
RCMQ 191230Z 32001KT 6000 FEW010 BKN100 21/18 Q1021 NOSIG RMK
A3015=

Extra information for RCMQ:More info

Metar Taf Metar & Taf Last 4 Metars F.Rules Stats Wind Profile Meteogram Temp Stats Airport Information Weather charts Add Link Nearby VenuesMetar ALERT Operation Metar Decoded Social comments